Roseway — WDB8858 — position and weather

sailwx.info

Track history (hours):
 
Tides and Currents Weather Stations Pressure Air Temp Water Temp Dewpoint Dewpoint Depression Visibility Wind Speed Wind Dir Waves Ship Positions

Roseway

Last pilot schooner in the United States when retired in 1973. Offered teen sailing program through World Ocean School since 2002.

Ship's website: http://www.worldoceanschool.org

Owner: World Ocean School, Boston, MA. More information available from US FCC via Universal Licensing System and Coast Guard Vessel Documentation Center.

Last reported at 2017-Jul-18 16:53 UTC. Time now 2017-Jul-26 10:45 UTC.
Position N 43°38' W 070°06'.

Length 45 m; draft 4 m.

Type: Sailing vessel. MMSI: 366866000.

Date/timePositionNaut miles runAvg speedWind from/ knotsBaromVisibWave heightAir tempDewpointWater temp
2017-Jul-18 16:53N 43°38' W 070°06'2 6.1
2017-Jul-18 16:30N 43°37' W 070°09'3 5.6
2017-Jul-18 16:00N 43°38' W 070°13'2 3.6
2017-Jul-18 15:30N 43°40' W 070°14'0 0.0
2017-Jul-18 14:58N 43°40' W 070°14'0 0.0
2017-Jul-18 13:58N 43°40' W 070°14'0 0.0
2017-Jul-18 13:28N 43°40' W 070°14'0 0.1
2017-Jul-18 12:58N 43°40' W 070°14'0 0.0
2017-Jul-18 12:28N 43°40' W 070°14'0 0.0
2017-Jul-18 11:58N 43°40' W 070°14'0 0.0
2017-Jul-18 11:28N 43°40' W 070°14'0 0.0
2017-Jul-18 10:58N 43°40' W 070°14'0 0.0
2017-Jul-18 10:30N 43°40' W 070°14'0 0.0
2017-Jul-18 10:00N 43°40' W 070°14'0 0.0
2017-Jul-18 09:30N 43°40' W 070°14'0 0.0
2017-Jul-18 09:00N 43°40' W 070°14'0 0.0
2017-Jul-18 08:29N 43°40' W 070°14'0 0.0
2017-Jul-18 07:59N 43°40' W 070°14'0 0.0
2017-Jul-18 07:29N 43°40' W 070°14'0 0.0
2017-Jul-18 06:59N 43°40' W 070°14'0 0.0
2017-Jul-18 06:29N 43°40' W 070°14'0 0.0
2017-Jul-18 05:59N 43°40' W 070°14'0 0.0
2017-Jul-18 05:29N 43°40' W 070°14'0 0.0
2017-Jul-18 04:59N 43°40' W 070°14'0 0.0
2017-Jul-18 04:29N 43°40' W 070°14'0 0.1
2017-Jul-18 03:59N 43°40' W 070°14'0 0.0
2017-Jul-18 03:29N 43°40' W 070°14'0 0.0
2017-Jul-18 02:59N 43°40' W 070°14'0 0.0
2017-Jul-18 02:28N 43°40' W 070°14'0 0.0
2017-Jul-18 02:00N 43°40' W 070°14'0 0.0
2017-Jul-18 01:30N 43°40' W 070°14'0 0.0
2017-Jul-18 01:00N 43°40' W 070°14'0 0.1
2017-Jul-18 00:30N 43°40' W 070°14'0 0.0
2017-Jul-18 00:00N 43°40' W 070°14'0 0.0
2017-Jul-17 23:30N 43°40' W 070°14'0 0.0
2017-Jul-17 23:00N 43°40' W 070°14'0 0.0
2017-Jul-17 22:30N 43°40' W 070°14'0 0.3
2017-Jul-17 22:00N 43°40' W 070°14'0 0.8
2017-Jul-17 21:31N 43°40' W 070°14'1 2.5
2017-Jul-17 21:00N 43°39' W 070°13'3 4.6
2017-Jul-17 20:26N 43°36' W 070°11'4 2.6
2017-Jul-17 19:01N 43°33' W 070°09'53 2.1
2017-Jul-16 17:28N 42°43' W 070°32'3 5.5
2017-Jul-16 17:00N 42°40' W 070°33'3 5.5
2017-Jul-16 16:30N 42°38' W 070°34'3 5.2
2017-Jul-16 16:01N 42°36' W 070°36'3 5.2
2017-Jul-16 15:30N 42°34' W 070°39'2 3.6
2017-Jul-16 15:00N 42°36' W 070°40'0 0.3
2017-Jul-16 14:30N 42°36' W 070°40'0 0.0
2017-Jul-16 13:54N 42°36' W 070°40'0 0.0
2017-Jul-16 13:21N 42°36' W 070°40'0 0.0
2017-Jul-16 13:00N 42°36' W 070°40'0 0.0
2017-Jul-16 12:24N 42°36' W 070°40'0 0.0
2017-Jul-16 11:57N 42°36' W 070°40'0 0.0
2017-Jul-16 11:30N 42°36' W 070°40'0 0.0
2017-Jul-16 10:57N 42°36' W 070°40'0 0.0
2017-Jul-16 10:24N 42°36' W 070°40'0 0.0
2017-Jul-16 09:51N 42°36' W 070°40'0 0.0
2017-Jul-16 09:24N 42°36' W 070°40'0 0.0
2017-Jul-16 09:00N 42°36' W 070°40'0 0.0
2017-Jul-16 08:27N 42°36' W 070°40'0 0.0
2017-Jul-16 08:00N 42°36' W 070°40'0 0.0
2017-Jul-16 07:30N 42°36' W 070°40'0 0.0
2017-Jul-16 06:51N 42°36' W 070°40'0 0.0
2017-Jul-16 06:30N 42°36' W 070°40'0 0.0
2017-Jul-16 05:57N 42°36' W 070°40'0 0.0
2017-Jul-16 05:27N 42°36' W 070°40'0 0.0
2017-Jul-16 04:51N 42°36' W 070°40'0 0.0
2017-Jul-16 04:30N 42°36' W 070°40'0 0.0
2017-Jul-16 04:00N 42°36' W 070°40'0 0.0
2017-Jul-16 03:24N 42°36' W 070°40'0 0.0
2017-Jul-16 03:00N 42°36' W 070°40'0 0.0
2017-Jul-16 02:30N 42°36' W 070°40'0 0.0
2017-Jul-16 01:51N 42°36' W 070°40'0 0.0
2017-Jul-16 01:27N 42°36' W 070°40'0 0.0
2017-Jul-16 01:00N 42°36' W 070°40'0 0.0
2017-Jul-16 00:30N 42°36' W 070°40'0 0.0
2017-Jul-16 00:00N 42°36' W 070°40'0 0.0
2017-Jul-15 23:24N 42°36' W 070°40'0 0.0
2017-Jul-15 22:49N 42°36' W 070°40'0 0.0
2017-Jul-15 22:25N 42°36' W 070°40'0 0.0
2017-Jul-15 21:49N 42°36' W 070°40'0 0.0
2017-Jul-15 21:22N 42°36' W 070°40'0 0.0
2017-Jul-15 20:58N 42°36' W 070°40'0 0.0
2017-Jul-15 20:25N 42°36' W 070°40'0 0.2
2017-Jul-15 19:58N 42°36' W 070°40'18 4.7
2017-Jul-15 16:04N 42°22' W 070°56'1 5.7
2017-Jul-15 15:58N 42°21' W 070°56'2 0.0
2017-Jul-13 16:12N 42°20' W 070°58'0 1.7
2017-Jul-13 16:00N 42°20' W 070°57'  
2017-Jul-09 12:02N 42°20' W 070°56'0 5.1
2017-Jul-09 12:01N 42°19' W 070°56'1 0.1
2017-Jul-08 21:48N 42°19' W 070°57'0 0.0
2017-Jul-08 21:30N 42°19' W 070°57'1 0.4
2017-Jul-08 19:37N 42°19' W 070°56'  
Track history (hours):
 
Tides and Currents Weather Stations Pressure Air Temp Water Temp Dewpoint Dewpoint Depression Visibility Wind Speed Wind Dir Waves Ship Positions

Roseway

Last pilot schooner in the United States when retired in 1973. Offered teen sailing program through World Ocean School since 2002.

Ship's website: http://www.worldoceanschool.org

Owner: World Ocean School, Boston, MA. More information available from US FCC via Universal Licensing System and Coast Guard Vessel Documentation Center.

Last reported at 2017-Jul-18 16:53 UTC. Time now 2017-Jul-26 10:45 UTC.
Position N 43°38' W 070°06'.

Length 45 m; draft 4 m.

Type: Sailing vessel. MMSI: 366866000.

Date/timePositionNaut miles runAvg speedWind from/ knotsBaromVisibWave heightAir tempDewpointWater temp
2017-Jul-18 16:53N 43°38' W 070°06'2 6.1
2017-Jul-18 16:30N 43°37' W 070°09'3 5.6
2017-Jul-18 16:00N 43°38' W 070°13'2 3.6
2017-Jul-18 15:30N 43°40' W 070°14'0 0.0
2017-Jul-18 14:58N 43°40' W 070°14'0 0.0
2017-Jul-18 13:58N 43°40' W 070°14'0 0.0
2017-Jul-18 13:28N 43°40' W 070°14'0 0.1
2017-Jul-18 12:58N 43°40' W 070°14'0 0.0
2017-Jul-18 12:28N 43°40' W 070°14'0 0.0
2017-Jul-18 11:58N 43°40' W 070°14'0 0.0
2017-Jul-18 11:28N 43°40' W 070°14'0 0.0
2017-Jul-18 10:58N 43°40' W 070°14'0 0.0
2017-Jul-18 10:30N 43°40' W 070°14'0 0.0
2017-Jul-18 10:00N 43°40' W 070°14'0 0.0
2017-Jul-18 09:30N 43°40' W 070°14'0 0.0
2017-Jul-18 09:00N 43°40' W 070°14'0 0.0
2017-Jul-18 08:29N 43°40' W 070°14'0 0.0
2017-Jul-18 07:59N 43°40' W 070°14'0 0.0
2017-Jul-18 07:29N 43°40' W 070°14'0 0.0
2017-Jul-18 06:59N 43°40' W 070°14'0 0.0
2017-Jul-18 06:29N 43°40' W 070°14'0 0.0
2017-Jul-18 05:59N 43°40' W 070°14'0 0.0
2017-Jul-18 05:29N 43°40' W 070°14'0 0.0
2017-Jul-18 04:59N 43°40' W 070°14'0 0.0
2017-Jul-18 04:29N 43°40' W 070°14'0 0.1
2017-Jul-18 03:59N 43°40' W 070°14'0 0.0
2017-Jul-18 03:29N 43°40' W 070°14'0 0.0
2017-Jul-18 02:59N 43°40' W 070°14'0 0.0
2017-Jul-18 02:28N 43°40' W 070°14'0 0.0
2017-Jul-18 02:00N 43°40' W 070°14'0 0.0
2017-Jul-18 01:30N 43°40' W 070°14'0 0.0
2017-Jul-18 01:00N 43°40' W 070°14'0 0.1
2017-Jul-18 00:30N 43°40' W 070°14'0 0.0
2017-Jul-18 00:00N 43°40' W 070°14'0 0.0
2017-Jul-17 23:30N 43°40' W 070°14'0 0.0
2017-Jul-17 23:00N 43°40' W 070°14'0 0.0
2017-Jul-17 22:30N 43°40' W 070°14'0 0.3
2017-Jul-17 22:00N 43°40' W 070°14'0 0.8
2017-Jul-17 21:31N 43°40' W 070°14'1 2.5
2017-Jul-17 21:00N 43°39' W 070°13'3 4.6
2017-Jul-17 20:26N 43°36' W 070°11'4 2.6
2017-Jul-17 19:01N 43°33' W 070°09'53 2.1
2017-Jul-16 17:28N 42°43' W 070°32'3 5.5
2017-Jul-16 17:00N 42°40' W 070°33'3 5.5
2017-Jul-16 16:30N 42°38' W 070°34'3 5.2
2017-Jul-16 16:01N 42°36' W 070°36'3 5.2
2017-Jul-16 15:30N 42°34' W 070°39'2 3.6
2017-Jul-16 15:00N 42°36' W 070°40'0 0.3
2017-Jul-16 14:30N 42°36' W 070°40'0 0.0
2017-Jul-16 13:54N 42°36' W 070°40'0 0.0
2017-Jul-16 13:21N 42°36' W 070°40'0 0.0
2017-Jul-16 13:00N 42°36' W 070°40'0 0.0
2017-Jul-16 12:24N 42°36' W 070°40'0 0.0
2017-Jul-16 11:57N 42°36' W 070°40'0 0.0
2017-Jul-16 11:30N 42°36' W 070°40'0 0.0
2017-Jul-16 10:57N 42°36' W 070°40'0 0.0
2017-Jul-16 10:24N 42°36' W 070°40'0 0.0
2017-Jul-16 09:51N 42°36' W 070°40'0 0.0
2017-Jul-16 09:24N 42°36' W 070°40'0 0.0
2017-Jul-16 09:00N 42°36' W 070°40'0 0.0
2017-Jul-16 08:27N 42°36' W 070°40'0 0.0
2017-Jul-16 08:00N 42°36' W 070°40'0 0.0
2017-Jul-16 07:30N 42°36' W 070°40'0 0.0
2017-Jul-16 06:51N 42°36' W 070°40'0 0.0
2017-Jul-16 06:30N 42°36' W 070°40'0 0.0
2017-Jul-16 05:57N 42°36' W 070°40'0 0.0
2017-Jul-16 05:27N 42°36' W 070°40'0 0.0
2017-Jul-16 04:51N 42°36' W 070°40'0 0.0
2017-Jul-16 04:30N 42°36' W 070°40'0 0.0
2017-Jul-16 04:00N 42°36' W 070°40'0 0.0
2017-Jul-16 03:24N 42°36' W 070°40'0 0.0
2017-Jul-16 03:00N 42°36' W 070°40'0 0.0
2017-Jul-16 02:30N 42°36' W 070°40'0 0.0
2017-Jul-16 01:51N 42°36' W 070°40'0 0.0
2017-Jul-16 01:27N 42°36' W 070°40'0 0.0
2017-Jul-16 01:00N 42°36' W 070°40'0 0.0
2017-Jul-16 00:30N 42°36' W 070°40'0 0.0
2017-Jul-16 00:00N 42°36' W 070°40'0 0.0
2017-Jul-15 23:24N 42°36' W 070°40'0 0.0
2017-Jul-15 22:49N 42°36' W 070°40'0 0.0
2017-Jul-15 22:25N 42°36' W 070°40'0 0.0
2017-Jul-15 21:49N 42°36' W 070°40'0 0.0
2017-Jul-15 21:22N 42°36' W 070°40'0 0.0
2017-Jul-15 20:58N 42°36' W 070°40'0 0.0
2017-Jul-15 20:25N 42°36' W 070°40'0 0.2
2017-Jul-15 19:58N 42°36' W 070°40'18 4.7
2017-Jul-15 16:04N 42°22' W 070°56'1 5.7
2017-Jul-15 15:58N 42°21' W 070°56'2 0.0
2017-Jul-13 16:12N 42°20' W 070°58'0 1.7
2017-Jul-13 16:00N 42°20' W 070°57'  
2017-Jul-09 12:02N 42°20' W 070°56'0 5.1
2017-Jul-09 12:01N 42°19' W 070°56'1 0.1
2017-Jul-08 21:48N 42°19' W 070°57'0 0.0
2017-Jul-08 21:30N 42°19' W 070°57'1 0.4
2017-Jul-08 19:37N 42°19' W 070°56'  

Dump ship's entire track history